createdAt,value
2022-08-11T00:02:15.387Z,17.80
2022-08-11T00:04:43.055Z,17.80
2022-08-11T00:07:11.333Z,17.70
2022-08-11T00:09:40.191Z,17.70
2022-08-11T00:12:14.086Z,17.60
2022-08-11T00:14:42.429Z,17.60
2022-08-11T00:17:13.486Z,17.60
2022-08-11T00:20:12.186Z,17.50
2022-08-11T00:22:32.907Z,17.50
2022-08-11T00:25:02.734Z,17.40
2022-08-11T00:27:34.600Z,17.40
2022-08-11T00:30:02.073Z,17.40
2022-08-11T00:32:30.451Z,17.30
2022-08-11T00:35:51.692Z,17.30
2022-08-11T00:37:48.877Z,17.30
2022-08-11T00:40:23.102Z,17.20
2022-08-11T00:43:01.580Z,17.20
2022-08-11T00:45:35.064Z,17.10
2022-08-11T00:48:24.337Z,17.10
2022-08-11T00:51:06.540Z,17.10
2022-08-11T00:53:46.303Z,17.00
2022-08-11T00:56:49.815Z,17.00
2022-08-11T00:59:51.842Z,17.00
2022-08-11T01:02:30.645Z,16.90
2022-08-11T01:05:39.103Z,16.90
2022-08-11T01:08:24.820Z,16.80
2022-08-11T01:11:05.724Z,16.70
2022-08-11T01:14:02.431Z,16.70
2022-08-11T01:17:04.722Z,16.70
2022-08-11T01:20:45.868Z,16.70
2022-08-11T01:23:12.668Z,16.60
2022-08-11T01:26:14.036Z,16.60
2022-08-11T01:29:18.380Z,16.60
2022-08-11T01:32:14.811Z,16.50
2022-08-11T01:35:15.857Z,16.50
2022-08-11T01:38:10.514Z,16.40
2022-08-11T01:40:55.643Z,16.40
2022-08-11T01:44:12.441Z,16.40
2022-08-11T01:46:46.178Z,16.30
2022-08-11T01:50:05.145Z,16.30
2022-08-11T01:52:17.338Z,16.30
2022-08-11T01:54:50.007Z,16.20
2022-08-11T01:57:34.375Z,16.20
2022-08-11T02:00:08.333Z,16.20
2022-08-11T02:02:42.004Z,16.10
2022-08-11T02:05:20.239Z,16.10
2022-08-11T02:07:58.123Z,16.10
2022-08-11T02:10:36.329Z,16.10
2022-08-11T02:13:15.514Z,16.00
2022-08-11T02:15:46.251Z,16.00
2022-08-11T02:18:18.394Z,16.00
2022-08-11T02:20:48.520Z,15.90
2022-08-11T02:24:03.847Z,15.90
2022-08-11T02:26:22.435Z,15.90
2022-08-11T02:28:56.175Z,15.90
2022-08-11T02:32:24.223Z,15.80
2022-08-11T02:34:40.856Z,15.80
2022-08-11T02:37:23.802Z,15.80
2022-08-11T02:40:10.824Z,15.80
2022-08-11T02:42:49.556Z,15.80
2022-08-11T02:45:31.179Z,15.70
2022-08-11T02:48:06.051Z,15.70
2022-08-11T02:50:37.946Z,15.70
2022-08-11T02:53:12.775Z,15.70
2022-08-11T02:55:57.781Z,15.70
2022-08-11T02:58:36.317Z,15.60
2022-08-11T03:01:10.412Z,15.60
2022-08-11T03:03:49.099Z,15.60
2022-08-11T03:06:25.039Z,15.60
2022-08-11T03:08:59.547Z,15.50
2022-08-11T03:11:45.627Z,15.50
2022-08-11T03:14:16.805Z,15.50
2022-08-11T03:16:51.874Z,15.40
2022-08-11T03:19:26.321Z,15.40
2022-08-11T03:22:06.257Z,15.40
2022-08-11T03:24:49.568Z,15.40
2022-08-11T03:27:46.678Z,15.40
2022-08-11T03:30:16.396Z,15.30
2022-08-11T03:32:58.277Z,15.30
2022-08-11T03:35:25.331Z,15.30
2022-08-11T03:38:00.416Z,15.30
2022-08-11T03:40:46.873Z,15.30
2022-08-11T03:43:28.831Z,15.20
2022-08-11T03:46:03.509Z,15.20
2022-08-11T03:48:41.047Z,15.20
2022-08-11T03:51:17.444Z,15.20
2022-08-11T03:53:56.036Z,15.20
2022-08-11T03:56:45.380Z,15.20
2022-08-11T03:59:47.191Z,15.20
2022-08-11T04:02:49.424Z,15.10
2022-08-11T04:06:05.714Z,15.10
2022-08-11T04:09:06.484Z,15.10
2022-08-11T04:12:01.039Z,15.10
2022-08-11T04:17:49.167Z,15.20
2022-08-11T04:20:31.502Z,15.20
2022-08-11T04:24:13.086Z,15.20
2022-08-11T04:26:49.752Z,15.20
2022-08-11T04:29:25.709Z,15.20
2022-08-11T04:32:21.523Z,15.20
2022-08-11T04:35:04.988Z,15.30
2022-08-11T04:37:53.397Z,15.60
2022-08-11T04:41:03.284Z,16.20
2022-08-11T04:44:14.351Z,16.20
2022-08-11T04:47:03.512Z,16.00
2022-08-11T04:50:00.567Z,15.90
2022-08-11T04:53:16.359Z,15.90
2022-08-11T04:56:03.361Z,15.90
2022-08-11T04:58:49.451Z,15.90
2022-08-11T05:01:35.185Z,15.90
2022-08-11T05:04:38.003Z,15.90
2022-08-11T05:07:46.979Z,16.00
2022-08-11T05:10:28.701Z,16.00
2022-08-11T05:12:57.568Z,16.10
2022-08-11T05:15:42.977Z,16.10
2022-08-11T05:18:23.047Z,16.20
2022-08-11T05:20:52.469Z,16.30
2022-08-11T05:23:26.465Z,16.30
2022-08-11T05:26:09.377Z,16.40
2022-08-11T05:28:52.438Z,16.40
2022-08-11T05:31:24.910Z,16.50
2022-08-11T05:33:57.000Z,16.60
2022-08-11T05:36:28.907Z,16.60
2022-08-11T05:39:02.173Z,16.70
2022-08-11T05:41:30.799Z,16.80
2022-08-11T05:44:19.788Z,16.90
2022-08-11T05:46:47.148Z,17.00
2022-08-11T05:49:14.432Z,17.10
2022-08-11T05:51:52.341Z,17.10
2022-08-11T05:54:28.694Z,17.20
2022-08-11T05:56:59.034Z,17.30
2022-08-11T05:59:27.210Z,17.40
2022-08-11T06:02:01.066Z,17.50
2022-08-11T06:04:29.298Z,17.60
2022-08-11T06:06:57.822Z,17.70
2022-08-11T06:09:28.077Z,17.80
2022-08-11T06:11:58.160Z,18.00
2022-08-11T06:14:25.867Z,18.10
2022-08-11T06:16:56.625Z,18.20
2022-08-11T06:19:30.730Z,18.40
2022-08-11T06:21:58.078Z,18.50
2022-08-11T06:24:26.977Z,18.70
2022-08-11T06:27:11.770Z,18.80
2022-08-11T06:29:54.535Z,19.00
2022-08-11T06:32:24.869Z,19.20
2022-08-11T06:35:11.200Z,19.40
2022-08-11T06:37:46.654Z,19.60
2022-08-11T06:40:29.011Z,19.70
2022-08-11T06:43:01.694Z,19.90
2022-08-11T06:45:33.417Z,20.10
2022-08-11T06:48:01.282Z,20.40
2022-08-11T06:50:29.845Z,20.80
2022-08-11T06:52:57.004Z,21.10
2022-08-11T06:55:58.063Z,21.50
2022-08-11T06:58:18.393Z,21.80
2022-08-11T07:00:48.329Z,22.20
2022-08-11T07:03:18.479Z,22.50
2022-08-11T07:05:49.318Z,22.80
2022-08-11T07:09:04.327Z,23.00
2022-08-11T07:11:55.483Z,23.40
2022-08-11T07:14:26.594Z,23.80
2022-08-11T07:16:54.004Z,24.10
2022-08-11T07:19:25.894Z,24.40
2022-08-11T07:22:01.041Z,24.60
2022-08-11T07:24:59.683Z,24.90
2022-08-11T07:27:35.070Z,25.10
2022-08-11T07:30:06.523Z,25.40
2022-08-11T07:32:37.534Z,25.70
2022-08-11T07:35:10.429Z,26.00
2022-08-11T07:37:40.401Z,26.20
2022-08-11T07:40:08.580Z,26.50
2022-08-11T07:42:38.678Z,26.70
2022-08-11T07:45:08.028Z,27.00
2022-08-11T07:47:37.058Z,27.30
2022-08-11T07:50:04.824Z,27.50
2022-08-11T07:52:35.718Z,27.70
2022-08-11T07:55:08.399Z,27.90
2022-08-11T07:58:14.016Z,28.00
2022-08-11T08:00:29.903Z,28.20
2022-08-11T08:02:59.571Z,28.40
2022-08-11T08:05:26.888Z,28.60
2022-08-11T08:07:54.035Z,28.90
2022-08-11T08:10:22.312Z,29.20
2022-08-11T08:12:50.772Z,29.40
2022-08-11T08:15:19.956Z,29.60
2022-08-11T08:18:20.620Z,29.80
2022-08-11T08:20:37.997Z,29.90
2022-08-11T08:23:06.181Z,30.10
2022-08-11T08:25:35.097Z,30.20
2022-08-11T08:28:07.067Z,30.30
2022-08-11T08:30:34.248Z,30.60
2022-08-11T08:33:01.947Z,30.80
2022-08-11T08:35:32.646Z,31.00
2022-08-11T08:38:00.114Z,31.10
2022-08-11T08:40:27.318Z,31.10
2022-08-11T08:42:56.817Z,31.30
2022-08-11T08:45:26.081Z,31.40
2022-08-11T08:47:58.510Z,31.70
2022-08-11T08:50:28.889Z,31.90
2022-08-11T08:53:00.484Z,32.00
2022-08-11T08:55:30.783Z,32.20
2022-08-11T08:57:59.508Z,32.40
2022-08-11T09:00:39.449Z,32.50
2022-08-11T09:03:36.064Z,32.70
2022-08-11T09:05:54.922Z,32.70
2022-08-11T09:08:23.431Z,32.80
2022-08-11T09:10:51.046Z,33.00
2022-08-11T09:13:18.120Z,33.10
2022-08-11T09:15:46.539Z,33.10
2022-08-11T09:18:13.353Z,33.20
2022-08-11T09:20:41.519Z,33.30
2022-08-11T09:24:06.665Z,33.50
2022-08-11T09:25:59.886Z,33.70
2022-08-11T09:28:28.925Z,33.70
2022-08-11T09:30:59.831Z,33.50
2022-08-11T09:33:28.147Z,33.50
2022-08-11T09:35:55.269Z,33.40
2022-08-11T09:38:25.998Z,33.40
2022-08-11T09:42:23.616Z,33.50
2022-08-11T09:43:43.506Z,33.80
2022-08-11T09:46:14.498Z,33.80
2022-08-11T09:48:44.853Z,34.00
2022-08-11T09:51:13.111Z,34.30
2022-08-11T09:53:41.900Z,34.40
2022-08-11T09:56:16.242Z,34.60
2022-08-11T09:58:44.385Z,34.70
2022-08-11T10:01:13.854Z,34.60
2022-08-11T10:03:42.858Z,34.60
2022-08-11T10:06:12.128Z,34.90
2022-08-11T10:08:42.926Z,35.00
2022-08-11T10:11:12.789Z,34.90
2022-08-11T10:14:33.519Z,35.10
2022-08-11T10:16:37.433Z,35.40
2022-08-11T10:19:05.468Z,35.50
2022-08-11T10:21:38.417Z,35.70
2022-08-11T10:24:07.180Z,35.90
2022-08-11T10:26:34.408Z,36.00
2022-08-11T10:29:12.927Z,36.20
2022-08-11T10:31:57.065Z,36.40
2022-08-11T10:34:28.355Z,36.40
2022-08-11T10:36:56.697Z,36.30
2022-08-11T10:39:24.497Z,36.40
2022-08-11T10:42:06.861Z,36.40
2022-08-11T10:44:39.382Z,36.40
2022-08-11T10:47:11.126Z,36.50
2022-08-11T10:49:38.234Z,36.40
2022-08-11T10:52:05.087Z,36.30
2022-08-11T10:54:33.415Z,36.20
2022-08-11T10:57:01.080Z,36.30
2022-08-11T10:59:29.174Z,36.40
2022-08-11T11:01:57.142Z,36.50
2022-08-11T11:04:42.413Z,36.60
2022-08-11T11:07:16.749Z,36.90
2022-08-11T11:09:47.827Z,37.10
2022-08-11T11:12:20.788Z,37.30
2022-08-11T11:14:56.470Z,37.40
2022-08-11T11:17:29.925Z,37.50
2022-08-11T11:19:59.875Z,37.60
2022-08-11T11:25:34.545Z,38.00
2022-08-11T11:28:16.341Z,38.20
2022-08-11T11:30:51.413Z,38.40
2022-08-11T11:33:25.417Z,38.50
2022-08-11T11:36:08.653Z,38.50
2022-08-11T11:38:35.588Z,38.60
2022-08-11T11:41:02.468Z,38.80
2022-08-11T11:43:30.136Z,39.00
2022-08-11T11:45:57.101Z,39.00
2022-08-11T11:48:24.254Z,38.90
2022-08-11T11:50:52.211Z,38.80
2022-08-11T11:53:23.269Z,38.80
2022-08-11T11:55:50.060Z,38.90
2022-08-11T11:58:18.615Z,38.90
2022-08-11T12:00:46.428Z,38.80
2022-08-11T12:03:14.158Z,39.00
2022-08-11T12:05:42.828Z,39.00
2022-08-11T12:08:13.159Z,38.70
2022-08-11T12:10:44.525Z,38.50
2022-08-11T12:13:12.357Z,38.30
2022-08-11T12:16:31.010Z,38.50
2022-08-11T12:18:26.804Z,38.70
2022-08-11T12:20:53.767Z,38.90
2022-08-11T12:23:21.105Z,39.00
2022-08-11T12:26:04.480Z,39.00
2022-08-11T12:28:36.654Z,39.00
2022-08-11T12:31:04.439Z,39.10
2022-08-11T12:33:33.306Z,39.10
2022-08-11T12:36:02.257Z,39.40
2022-08-11T12:38:30.365Z,39.60
2022-08-11T12:41:15.541Z,39.40
2022-08-11T12:43:46.245Z,39.00
2022-08-11T12:46:28.925Z,38.70
2022-08-11T12:49:02.009Z,38.60
2022-08-11T12:52:11.126Z,38.80
2022-08-11T12:54:25.895Z,39.00
2022-08-11T12:57:00.167Z,39.30
2022-08-11T12:59:27.194Z,39.50
2022-08-11T13:01:54.840Z,39.60
2022-08-11T13:04:22.235Z,39.80
2022-08-11T13:06:50.815Z,39.80
2022-08-11T13:09:18.400Z,40.00
2022-08-11T13:11:56.823Z,40.20
2022-08-11T13:14:26.412Z,40.40
2022-08-11T13:16:53.859Z,40.50
2022-08-11T13:19:21.631Z,40.50
2022-08-11T13:21:49.496Z,40.50
2022-08-11T13:24:17.343Z,40.10
2022-08-11T13:26:48.750Z,39.90
2022-08-11T13:29:21.850Z,39.70
2022-08-11T13:31:51.465Z,39.50
2022-08-11T13:34:20.360Z,39.40
2022-08-11T13:36:50.105Z,39.50
2022-08-11T13:39:17.670Z,39.30
2022-08-11T13:41:45.376Z,39.00
2022-08-11T13:44:16.764Z,39.00
2022-08-11T13:46:46.605Z,39.10
2022-08-11T13:49:17.045Z,39.30
2022-08-11T13:51:44.333Z,39.30
2022-08-11T13:54:16.045Z,39.00
2022-08-11T13:56:45.411Z,38.80
2022-08-11T13:59:13.832Z,38.90
2022-08-11T14:02:19.223Z,39.00
2022-08-11T14:04:38.656Z,39.10
2022-08-11T14:07:08.811Z,39.00
2022-08-11T14:09:38.639Z,38.70
2022-08-11T14:12:23.850Z,38.40
2022-08-11T14:14:57.412Z,38.40
2022-08-11T14:17:47.823Z,38.20
2022-08-11T14:20:39.971Z,38.20
2022-08-11T14:23:04.213Z,38.30
2022-08-11T14:26:00.087Z,38.20
2022-08-11T14:28:32.257Z,38.10
2022-08-11T14:31:04.352Z,37.90
2022-08-11T14:34:00.850Z,37.70
2022-08-11T14:36:23.687Z,37.60
2022-08-11T14:38:51.507Z,37.50
2022-08-11T14:41:19.049Z,37.60
2022-08-11T14:44:13.139Z,37.80
2022-08-11T14:46:33.746Z,38.00
2022-08-11T14:49:01.049Z,38.20
2022-08-11T14:51:29.492Z,38.30
2022-08-11T14:53:58.823Z,38.10
2022-08-11T14:56:26.095Z,37.90
2022-08-11T14:58:53.251Z,37.80
2022-08-11T15:01:20.161Z,37.80
2022-08-11T15:04:24.234Z,37.70
2022-08-11T15:06:40.158Z,37.60
2022-08-11T15:09:09.218Z,37.60
2022-08-11T15:11:36.638Z,37.60
2022-08-11T15:14:06.580Z,37.70
2022-08-11T15:16:33.492Z,37.60
2022-08-11T15:19:00.335Z,37.60
2022-08-11T15:21:27.070Z,37.60
2022-08-11T15:23:55.210Z,37.40
2022-08-11T15:26:30.240Z,37.30
2022-08-11T15:28:57.030Z,37.30
2022-08-11T15:31:26.043Z,37.20
2022-08-11T15:33:57.267Z,37.20
2022-08-11T15:36:25.574Z,36.90
2022-08-11T15:38:58.708Z,36.80
2022-08-11T15:41:31.166Z,36.70
2022-08-11T15:43:58.674Z,36.60
2022-08-11T15:46:30.744Z,36.50
2022-08-11T15:49:01.028Z,36.40
2022-08-11T15:51:33.277Z,36.10
2022-08-11T15:54:09.226Z,35.80
2022-08-11T15:56:39.563Z,35.60
2022-08-11T15:59:33.634Z,35.40
2022-08-11T16:01:57.549Z,35.20
2022-08-11T16:04:27.430Z,34.90
2022-08-11T16:06:58.152Z,34.70
2022-08-11T16:09:41.328Z,34.60
2022-08-11T16:12:17.583Z,34.40
2022-08-11T16:14:46.557Z,34.30
2022-08-11T16:17:16.744Z,34.20
2022-08-11T16:19:45.541Z,34.00
2022-08-11T16:22:14.726Z,33.80
2022-08-11T16:27:01.506Z,33.70
2022-08-11T16:27:35.257Z,33.70
2022-08-11T16:30:03.697Z,33.50
2022-08-11T16:32:31.867Z,33.30
2022-08-11T16:35:01.511Z,33.10
2022-08-11T16:37:29.858Z,32.80
2022-08-11T16:39:58.263Z,32.70
2022-08-11T16:43:09.415Z,32.80
2022-08-11T16:45:12.152Z,32.70
2022-08-11T16:48:02.755Z,32.60
2022-08-11T16:50:25.891Z,32.30
2022-08-11T16:52:52.742Z,32.20
2022-08-11T16:55:51.600Z,32.00
2022-08-11T16:58:09.563Z,31.80
2022-08-11T17:00:37.271Z,31.60
2022-08-11T17:03:05.541Z,31.50
2022-08-11T17:05:34.787Z,31.30
2022-08-11T17:08:08.270Z,31.20
2022-08-11T17:10:52.769Z,31.00
2022-08-11T17:13:29.153Z,30.80
2022-08-11T17:16:00.278Z,30.80
2022-08-11T17:18:29.017Z,30.70
2022-08-11T17:20:56.193Z,30.50
2022-08-11T17:23:23.278Z,30.40
2022-08-11T17:25:59.723Z,30.20
2022-08-11T17:28:32.965Z,30.00
2022-08-11T17:31:00.885Z,29.80
2022-08-11T17:33:29.427Z,29.60
2022-08-11T17:35:57.141Z,29.50
2022-08-11T17:38:24.890Z,29.40
2022-08-11T17:40:56.608Z,29.30
2022-08-11T17:43:23.675Z,29.20
2022-08-11T17:45:50.873Z,29.00
2022-08-11T17:48:18.524Z,28.90
2022-08-11T17:50:46.405Z,28.80
2022-08-11T17:53:15.516Z,28.70
2022-08-11T17:55:52.550Z,28.60
2022-08-11T17:58:23.213Z,28.40
2022-08-11T18:00:51.212Z,28.20
2022-08-11T18:03:20.064Z,28.00
2022-08-11T18:05:48.488Z,27.70
2022-08-11T18:08:17.738Z,27.60
2022-08-11T18:10:46.270Z,27.40
2022-08-11T18:13:13.493Z,27.10
2022-08-11T18:15:50.126Z,26.90
2022-08-11T18:18:22.947Z,26.70
2022-08-11T18:20:50.960Z,26.60
2022-08-11T18:23:19.904Z,26.40
2022-08-11T18:25:48.166Z,26.20
2022-08-11T18:28:19.621Z,26.00
2022-08-11T18:30:52.120Z,25.80
2022-08-11T18:34:04.006Z,25.70
2022-08-11T18:36:29.465Z,25.60
2022-08-11T18:38:58.004Z,25.50
2022-08-11T18:41:27.318Z,25.30
2022-08-11T18:43:57.709Z,25.20
2022-08-11T18:46:27.700Z,25.10
2022-08-11T18:49:00.966Z,24.90
2022-08-11T18:51:30.687Z,24.80
2022-08-11T18:54:10.306Z,24.60
2022-08-11T18:56:37.719Z,24.50
2022-08-11T18:59:07.862Z,24.40
2022-08-11T19:01:41.950Z,24.30
2022-08-11T19:07:04.146Z,24.00
2022-08-11T19:09:32.379Z,24.00
2022-08-11T19:12:01.393Z,23.90
2022-08-11T19:14:30.714Z,23.80
2022-08-11T19:17:00.292Z,23.70
2022-08-11T19:19:29.021Z,23.60
2022-08-11T19:21:56.712Z,23.50
2022-08-11T19:24:25.549Z,23.50
2022-08-11T19:26:53.394Z,23.40
2022-08-11T19:30:07.957Z,23.30
2022-08-11T19:32:12.853Z,23.20
2022-08-11T19:34:40.390Z,23.10
2022-08-11T19:37:08.857Z,23.00
2022-08-11T19:39:36.703Z,22.90
2022-08-11T19:42:05.213Z,22.90
2022-08-11T19:44:32.369Z,22.80
2022-08-11T19:47:01.493Z,22.70
2022-08-11T19:49:36.785Z,22.60
2022-08-11T19:52:05.347Z,22.50
2022-08-11T19:54:34.231Z,22.40
2022-08-11T19:57:03.146Z,22.40
2022-08-11T19:59:31.548Z,22.30
2022-08-11T20:02:13.703Z,22.30
2022-08-11T20:04:43.612Z,22.20
2022-08-11T20:07:13.616Z,22.10
2022-08-11T20:10:04.749Z,22.00
2022-08-11T20:12:32.920Z,22.00
2022-08-11T20:15:00.538Z,21.90
2022-08-11T20:17:32.583Z,21.90
2022-08-11T20:20:04.798Z,21.90
2022-08-11T20:25:24.730Z,21.80
2022-08-11T20:27:55.618Z,21.70
2022-08-11T20:30:22.748Z,21.70
2022-08-11T20:32:51.682Z,21.60
2022-08-11T20:35:21.067Z,21.60
2022-08-11T20:37:51.357Z,21.60
2022-08-11T20:40:23.740Z,21.50
2022-08-11T20:42:51.188Z,21.50
2022-08-11T20:45:23.470Z,21.40
2022-08-11T20:47:59.150Z,21.40
2022-08-11T20:50:29.726Z,21.30
2022-08-11T20:52:57.418Z,21.30
2022-08-11T20:55:45.611Z,21.20
2022-08-11T20:58:17.838Z,21.20
2022-08-11T21:00:47.401Z,21.10
2022-08-11T21:03:14.622Z,21.10
2022-08-11T21:08:51.988Z,21.00
2022-08-11T21:11:27.932Z,21.00
2022-08-11T21:13:55.786Z,21.00
2022-08-11T21:16:30.457Z,20.90
2022-08-11T21:19:04.465Z,20.80
2022-08-11T21:21:45.358Z,20.80
2022-08-11T21:24:15.641Z,20.70
2022-08-11T21:26:44.388Z,20.70
2022-08-11T21:29:12.766Z,20.60
2022-08-11T21:31:41.600Z,20.60
2022-08-11T21:34:10.296Z,20.60
2022-08-11T21:36:40.103Z,20.50
2022-08-11T21:39:10.151Z,20.40
2022-08-11T21:41:37.682Z,20.40
2022-08-11T21:44:06.541Z,20.40
2022-08-11T21:46:36.763Z,20.30
2022-08-11T21:49:04.883Z,20.30
2022-08-11T21:51:31.691Z,20.30
2022-08-11T21:54:01.242Z,20.20
2022-08-11T21:56:30.891Z,20.20
2022-08-11T21:58:58.432Z,20.20
2022-08-11T22:01:35.181Z,20.10
2022-08-11T22:06:56.021Z,20.10
2022-08-11T22:09:24.268Z,20.00
2022-08-11T22:12:29.868Z,20.00
2022-08-11T22:14:38.932Z,20.00
2022-08-11T22:17:08.804Z,19.90
2022-08-11T22:19:36.755Z,19.90
2022-08-11T22:22:06.892Z,19.90
2022-08-11T22:24:37.136Z,19.80
2022-08-11T22:27:04.499Z,19.80
2022-08-11T22:29:49.982Z,19.80
2022-08-11T22:32:19.320Z,19.70
2022-08-11T22:34:53.544Z,19.70
2022-08-11T22:37:27.409Z,19.60
2022-08-11T22:40:01.971Z,19.60
2022-08-11T22:42:33.598Z,19.60
2022-08-11T22:45:01.283Z,19.50
2022-08-11T22:47:34.925Z,19.50
2022-08-11T22:50:09.939Z,19.40
2022-08-11T22:52:37.283Z,19.40
2022-08-11T22:55:07.613Z,19.40
2022-08-11T22:57:37.092Z,19.30
2022-08-11T23:00:05.099Z,19.30
2022-08-11T23:02:32.361Z,19.30
2022-08-11T23:04:59.797Z,19.30
2022-08-11T23:07:50.826Z,19.20
2022-08-11T23:10:17.995Z,19.20
2022-08-11T23:12:46.941Z,19.20
2022-08-11T23:15:14.744Z,19.20
2022-08-11T23:17:41.696Z,19.20
2022-08-11T23:20:27.195Z,19.20
2022-08-11T23:22:57.597Z,19.20
2022-08-11T23:25:27.123Z,19.10
2022-08-11T23:27:55.451Z,19.10
2022-08-11T23:30:23.555Z,19.00
2022-08-11T23:32:54.083Z,19.00
2022-08-11T23:35:39.279Z,19.00
2022-08-11T23:38:07.653Z,19.00
2022-08-11T23:40:37.772Z,18.90
2022-08-11T23:43:04.883Z,18.90
2022-08-11T23:45:32.530Z,18.90
2022-08-11T23:48:01.016Z,18.80
2022-08-11T23:50:28.480Z,18.80
2022-08-11T23:52:55.784Z,18.80
2022-08-11T23:55:22.904Z,18.70
2022-08-11T23:57:51.617Z,18.70
